Terminal Aerodrome Forecast
Issued by NWS

Home | Current Version | Previous Version | Text Only | Print | Product List | Glossary On
Versions: 1 2 3 4 5 6 7 8 9 10 11 12 13 14 15 16 17 18 19 20 21 22
914
FTUS46 KSEW 131133
TAFCLM
TAF
KCLM 131133Z 1312/1412 VRB03KT P6SM SCT040 BKN070
     FM131900 VRB03KT P6SM -RA OVC045
     FM132300 VRB03KT 4SM -RA SCT008 OVC015=

USA.gov is the U.S. government's official web portal to all federal, state and local government web resources and services.